Weather at Cheddi Jagan International Airport

Public forecast

Using degrees Celsius for public forecast. Weather courtesy of forecast.io.

Current aviation weather report (METAR) for Cheddi Jagan International Airport

2024/07/15 14:00 (retrieved 12 minutes ago)

SYCJ 151400Z VRB02KT 9999 FEW018 30/24 Q1014 NOSIG

Aviation forecast (TAF) for Cheddi Jagan International Airport

2024/07/15 12:57 (retrieved 1 hour ago)

TAF SYCJ 151100Z 1512/1612 09010KT 9999 BKN018 BKN045 TEMPO 1515/1519 5000 SHRA FEW015CB BECMG 1523/1601 09006KT 9999 FEW018 BKN100